createdAt,value
2019-03-23T00:02:12.700Z,90.35
2019-03-23T00:04:41.258Z,97.85
2019-03-23T00:07:09.938Z,96.63
2019-03-23T00:09:38.396Z,95.92
2019-03-23T00:12:06.932Z,94.25
2019-03-23T00:14:35.400Z,98.95
2019-03-23T00:17:03.944Z,92.95
2019-03-23T00:19:32.459Z,92.72
2019-03-23T00:22:00.994Z,97.82
2019-03-23T00:24:29.528Z,96.87
2019-03-23T00:26:58.028Z,95.95
2019-03-23T00:29:26.567Z,103.42
2019-03-23T00:31:55.040Z,103.95
2019-03-23T00:34:23.547Z,103.40
2019-03-23T00:36:52.021Z,111.50
2019-03-23T00:39:20.619Z,107.70
2019-03-23T00:41:49.125Z,111.20
2019-03-23T00:44:17.655Z,112.80
2019-03-23T00:46:46.132Z,111.20
2019-03-23T00:49:14.636Z,105.27
2019-03-23T00:51:43.094Z,115.70
2019-03-23T00:54:11.564Z,108.78
2019-03-23T00:56:40.060Z,110.85
2019-03-23T00:59:08.535Z,115.52
2019-03-23T01:01:37.002Z,115.85
2019-03-23T01:04:05.564Z,126.05
2019-03-23T01:06:34.091Z,121.22
2019-03-23T01:09:04.409Z,111.72
2019-03-23T01:11:32.970Z,111.88
2019-03-23T01:14:01.440Z,107.65
2019-03-23T01:16:29.904Z,111.03
2019-03-23T01:18:58.490Z,115.95
2019-03-23T01:21:27.032Z,118.20
2019-03-23T01:23:55.495Z,119.77
2019-03-23T01:26:23.995Z,122.25
2019-03-23T01:28:52.464Z,123.28
2019-03-23T01:31:20.940Z,120.17
2019-03-23T01:33:49.437Z,110.28
2019-03-23T01:36:17.900Z,97.78
2019-03-23T01:38:46.370Z,95.45
2019-03-23T01:41:14.882Z,118.95
2019-03-23T01:43:43.344Z,128.00
2019-03-23T01:46:11.808Z,136.43
2019-03-23T01:48:40.307Z,138.85
2019-03-23T01:51:08.915Z,151.25
2019-03-23T01:53:37.466Z,155.12
2019-03-23T01:56:05.977Z,165.62
2019-03-23T01:58:34.512Z,142.18
2019-03-23T02:01:02.990Z,142.05
2019-03-23T02:03:31.497Z,144.53
2019-03-23T02:05:59.967Z,139.92
2019-03-23T02:08:28.435Z,125.65
2019-03-23T02:10:57.468Z,122.30
2019-03-23T02:13:25.931Z,115.77
2019-03-23T02:15:54.408Z,110.70
2019-03-23T02:18:22.904Z,111.57
2019-03-23T02:20:51.505Z,110.50
2019-03-23T02:23:19.977Z,110.42
2019-03-23T02:25:48.484Z,100.80
2019-03-23T02:28:17.016Z,83.60
2019-03-23T02:30:45.546Z,98.42
2019-03-23T02:33:14.129Z,81.82
2019-03-23T02:35:42.664Z,86.82
2019-03-23T02:38:11.130Z,94.87
2019-03-23T02:40:39.694Z,92.85
2019-03-23T02:43:08.159Z,93.03
2019-03-23T02:45:36.635Z,86.45
2019-03-23T02:48:06.005Z,92.85
2019-03-23T02:50:34.539Z,94.92
2019-03-23T02:53:03.002Z,96.05
2019-03-23T02:55:31.491Z,80.53
2019-03-23T02:58:00.027Z,100.62
2019-03-23T03:00:28.505Z,89.03
2019-03-23T03:02:57.060Z,88.60
2019-03-23T03:05:25.607Z,91.10
2019-03-23T03:07:54.088Z,86.50
2019-03-23T03:10:41.875Z,84.32
2019-03-23T03:13:10.504Z,85.53
2019-03-23T03:15:39.043Z,94.87
2019-03-23T03:18:08.246Z,92.95
2019-03-23T03:20:36.776Z,95.42
2019-03-23T03:23:05.427Z,91.12
2019-03-23T03:25:33.991Z,88.27
2019-03-23T03:28:02.564Z,90.67
2019-03-23T03:30:31.074Z,86.97
2019-03-23T03:32:59.646Z,84.25
2019-03-23T03:35:28.189Z,81.53
2019-03-23T03:37:57.374Z,79.95
2019-03-23T03:40:26.227Z,82.37
2019-03-23T03:42:54.831Z,84.37
2019-03-23T03:45:25.545Z,86.63
2019-03-23T03:47:54.052Z,72.47
2019-03-23T03:50:22.581Z,74.80
2019-03-23T03:52:51.120Z,76.35
2019-03-23T03:55:19.659Z,77.10
2019-03-23T03:57:48.246Z,71.42
2019-03-23T04:00:16.853Z,73.45
2019-03-23T04:02:45.364Z,69.05
2019-03-23T04:05:14.140Z,67.87
2019-03-23T04:07:42.601Z,65.13
2019-03-23T04:10:11.318Z,61.83
2019-03-23T04:12:39.855Z,65.23
2019-03-23T04:15:10.568Z,62.33
2019-03-23T04:17:39.157Z,61.08
2019-03-23T04:20:09.421Z,61.20
2019-03-23T04:22:37.966Z,63.83
2019-03-23T04:25:07.794Z,64.20
2019-03-23T04:27:36.338Z,67.30
2019-03-23T04:30:07.404Z,68.22
2019-03-23T04:32:35.974Z,69.03
2019-03-23T04:35:05.878Z,72.15
2019-03-23T04:37:34.414Z,76.60
2019-03-23T04:40:03.001Z,78.83
2019-03-23T04:42:31.527Z,81.53
2019-03-23T04:44:59.997Z,83.97
2019-03-23T04:47:28.496Z,82.65
2019-03-23T04:49:56.969Z,89.67
2019-03-23T04:52:25.428Z,105.67
2019-03-23T04:54:53.931Z,97.60
2019-03-23T04:57:22.421Z,101.80
2019-03-23T04:59:50.961Z,91.30
2019-03-23T05:02:19.466Z,92.37
2019-03-23T05:04:47.987Z,77.90
2019-03-23T05:07:16.520Z,74.00
2019-03-23T05:09:45.016Z,74.25
2019-03-23T05:12:13.491Z,72.17
2019-03-23T05:14:41.951Z,67.90
2019-03-23T05:17:10.676Z,63.42
2019-03-23T05:19:39.222Z,65.65
2019-03-23T05:22:07.680Z,57.40
2019-03-23T05:24:36.264Z,56.60
2019-03-23T05:27:04.804Z,56.65
2019-03-23T05:29:33.270Z,55.28
2019-03-23T05:32:01.857Z,53.23
2019-03-23T05:34:30.391Z,56.05
2019-03-23T05:36:58.860Z,57.27
2019-03-23T05:39:27.447Z,57.03
2019-03-23T05:41:56.123Z,58.00
2019-03-23T05:44:24.587Z,58.33
2019-03-23T05:46:54.383Z,55.48
2019-03-23T05:49:23.121Z,50.45
2019-03-23T05:51:51.599Z,47.17
2019-03-23T05:54:20.105Z,47.50
2019-03-23T05:56:48.639Z,44.65
2019-03-23T05:59:17.114Z,45.40
2019-03-23T06:01:45.671Z,48.55
2019-03-23T06:04:14.173Z,45.50
2019-03-23T06:06:42.712Z,48.87
2019-03-23T06:09:11.211Z,49.50
2019-03-23T06:11:39.684Z,52.95
2019-03-23T06:14:08.155Z,56.28
2019-03-23T06:16:36.717Z,59.75
2019-03-23T06:19:05.526Z,57.98
2019-03-23T06:21:34.000Z,61.83
2019-03-23T06:24:02.710Z,60.48
2019-03-23T06:26:31.236Z,60.53
2019-03-23T06:28:59.698Z,53.65
2019-03-23T06:31:28.195Z,52.78
2019-03-23T06:33:56.655Z,51.70
2019-03-23T06:36:25.191Z,52.70
2019-03-23T06:38:53.775Z,53.08
2019-03-23T06:41:22.335Z,52.65
2019-03-23T06:43:50.867Z,51.18
2019-03-23T06:46:19.364Z,54.73
2019-03-23T06:48:47.833Z,49.85
2019-03-23T06:51:16.287Z,49.65
2019-03-23T06:53:44.858Z,43.85
2019-03-23T06:56:13.314Z,47.15
2019-03-23T06:58:41.780Z,46.08
2019-03-23T07:01:10.356Z,51.77
2019-03-23T07:03:38.822Z,53.25
2019-03-23T07:06:07.355Z,51.08
2019-03-23T07:08:35.863Z,49.08
2019-03-23T07:11:04.463Z,47.43
2019-03-23T07:13:32.923Z,44.15
2019-03-23T07:16:01.423Z,43.28
2019-03-23T07:18:29.960Z,40.85
2019-03-23T07:20:58.649Z,39.27
2019-03-23T07:23:27.259Z,39.38
2019-03-23T07:25:56.095Z,40.08
2019-03-23T07:28:24.560Z,37.83
2019-03-23T07:30:53.059Z,37.95
2019-03-23T07:33:21.601Z,40.65
2019-03-23T07:35:50.144Z,39.25
2019-03-23T07:38:18.765Z,40.83
2019-03-23T07:40:47.380Z,40.75
2019-03-23T07:43:15.835Z,41.13
2019-03-23T07:45:44.413Z,44.80
2019-03-23T07:48:12.878Z,42.58
2019-03-23T07:50:41.412Z,39.80
2019-03-23T07:53:09.979Z,40.63
2019-03-23T07:55:38.439Z,33.58
2019-03-23T07:58:08.248Z,34.98
2019-03-23T08:00:36.764Z,34.85
2019-03-23T08:03:05.235Z,34.15
2019-03-23T08:05:33.699Z,33.23
2019-03-23T08:08:02.196Z,36.50
2019-03-23T08:10:34.796Z,36.23
2019-03-23T08:13:03.408Z,34.00
2019-03-23T08:15:31.969Z,36.15
2019-03-23T08:18:00.516Z,34.67
2019-03-23T08:20:28.998Z,35.38
2019-03-23T08:22:57.747Z,33.63
2019-03-23T08:25:26.215Z,36.83
2019-03-23T08:27:54.741Z,37.35
2019-03-23T08:30:23.328Z,38.08
2019-03-23T08:32:51.791Z,36.35
2019-03-23T08:35:20.316Z,35.20
2019-03-23T08:37:48.851Z,32.85
2019-03-23T08:40:17.316Z,35.13
2019-03-23T08:42:45.783Z,34.00
2019-03-23T08:45:14.301Z,33.70
2019-03-23T08:47:42.839Z,31.93
2019-03-23T08:50:11.574Z,31.42
2019-03-23T08:52:40.105Z,30.83
2019-03-23T08:55:08.830Z,32.10
2019-03-23T08:57:37.295Z,34.53
2019-03-23T09:00:07.527Z,35.65
2019-03-23T09:02:36.019Z,33.92
2019-03-23T09:05:05.914Z,38.48
2019-03-23T09:07:34.491Z,32.85
2019-03-23T09:10:04.463Z,31.87
2019-03-23T09:12:32.944Z,32.70
2019-03-23T09:15:01.523Z,33.33
2019-03-23T09:17:30.051Z,35.30
2019-03-23T09:20:00.392Z,34.15
2019-03-23T09:22:29.029Z,36.08
2019-03-23T09:24:57.915Z,33.73
2019-03-23T09:27:26.428Z,35.40
2019-03-23T09:29:54.936Z,32.63
2019-03-23T09:32:23.475Z,35.35
2019-03-23T09:34:51.941Z,34.55
2019-03-23T09:37:20.532Z,31.75
2019-03-23T09:39:48.990Z,33.53
2019-03-23T09:42:17.455Z,33.23
2019-03-23T09:44:46.045Z,32.03
2019-03-23T09:47:14.586Z,30.37
2019-03-23T09:49:43.140Z,32.73
2019-03-23T09:52:11.706Z,33.78
2019-03-23T09:54:40.172Z,34.90
2019-03-23T09:57:09.206Z,32.88
2019-03-23T09:59:37.736Z,35.45
2019-03-23T10:02:06.469Z,34.58
2019-03-23T10:04:34.942Z,35.10
2019-03-23T10:07:03.507Z,35.17
2019-03-23T10:09:31.976Z,34.73
2019-03-23T10:12:00.450Z,33.95
2019-03-23T10:14:28.951Z,33.55
2019-03-23T10:16:57.433Z,31.95
2019-03-23T10:19:25.971Z,32.28
2019-03-23T10:21:54.554Z,33.78
2019-03-23T10:24:23.020Z,34.90
2019-03-23T10:26:52.344Z,32.90
2019-03-23T10:29:21.000Z,34.15
2019-03-23T10:31:49.475Z,36.35
2019-03-23T10:34:18.020Z,32.83
2019-03-23T10:36:46.520Z,32.85
2019-03-23T10:39:15.004Z,31.68
2019-03-23T10:41:43.548Z,33.40
2019-03-23T10:44:12.112Z,31.97
2019-03-23T10:46:40.583Z,33.08
2019-03-23T10:49:10.683Z,31.12
2019-03-23T10:51:39.374Z,32.60
2019-03-23T10:54:10.906Z,31.23
2019-03-23T10:56:40.987Z,32.17
2019-03-23T10:59:11.027Z,33.42
2019-03-23T11:01:42.147Z,32.90
2019-03-23T11:04:10.658Z,34.65
2019-03-23T11:06:39.227Z,30.88
2019-03-23T11:09:08.043Z,31.07
2019-03-23T11:11:36.504Z,27.93
2019-03-23T11:14:05.072Z,28.83
2019-03-23T11:16:33.531Z,28.73
2019-03-23T11:19:02.006Z,28.98
2019-03-23T11:21:30.519Z,28.45
2019-03-23T11:23:59.131Z,34.33
2019-03-23T11:26:28.191Z,30.80
2019-03-23T11:28:57.248Z,29.00
2019-03-23T11:31:25.708Z,27.42
2019-03-23T11:33:54.184Z,26.20
2019-03-23T11:36:22.769Z,23.40
2019-03-23T11:38:51.235Z,23.22
2019-03-23T11:41:19.772Z,23.73
2019-03-23T11:43:48.275Z,23.32
2019-03-23T11:46:17.121Z,22.87
2019-03-23T11:48:45.693Z,23.40
2019-03-23T11:51:14.219Z,23.92
2019-03-23T11:53:42.751Z,25.90
2019-03-23T11:56:11.221Z,26.87
2019-03-23T11:58:39.832Z,28.23
2019-03-23T12:01:08.309Z,27.65
2019-03-23T12:03:36.872Z,26.90
2019-03-23T12:06:05.375Z,26.05
2019-03-23T12:08:33.844Z,24.40
2019-03-23T12:11:03.240Z,26.17
2019-03-23T12:15:59.680Z,20.05
2019-03-23T12:18:28.145Z,22.02
2019-03-23T12:20:56.900Z,21.97
2019-03-23T12:23:25.467Z,24.77
2019-03-23T12:25:54.037Z,20.67
2019-03-23T12:28:22.543Z,22.13
2019-03-23T12:30:51.252Z,21.13
2019-03-23T12:33:21.410Z,18.85
2019-03-23T12:35:50.174Z,20.37
2019-03-23T12:38:18.718Z,16.32
2019-03-23T12:40:47.255Z,16.30
2019-03-23T12:43:15.888Z,15.33
2019-03-23T12:45:44.351Z,14.73
2019-03-23T12:48:12.824Z,18.87
2019-03-23T12:50:41.423Z,17.45
2019-03-23T12:53:09.996Z,19.40
2019-03-23T12:55:38.462Z,20.52
2019-03-23T12:58:07.090Z,19.80
2019-03-23T13:00:35.650Z,21.20
2019-03-23T13:03:04.255Z,17.45
2019-03-23T13:05:32.753Z,16.50
2019-03-23T13:08:01.217Z,16.60
2019-03-23T13:10:29.751Z,16.55
2019-03-23T13:12:58.493Z,15.63
2019-03-23T13:15:26.999Z,16.82
2019-03-23T13:17:55.570Z,15.73
2019-03-23T13:20:26.726Z,18.60
2019-03-23T13:22:55.232Z,22.75
2019-03-23T13:25:23.698Z,25.33
2019-03-23T13:27:52.341Z,23.85
2019-03-23T13:30:20.900Z,22.42
2019-03-23T13:32:49.742Z,23.87
2019-03-23T13:35:18.236Z,23.05
2019-03-23T13:37:46.772Z,24.55
2019-03-23T13:40:15.315Z,22.25
2019-03-23T13:42:43.823Z,26.55
2019-03-23T13:45:12.537Z,24.32
2019-03-23T13:47:41.062Z,24.60
2019-03-23T13:50:10.717Z,26.05
2019-03-23T13:52:39.397Z,24.00
2019-03-23T13:55:09.952Z,19.82
2019-03-23T13:57:38.529Z,16.90
2019-03-23T14:00:07.800Z,13.25
2019-03-23T14:05:12.255Z,17.98
2019-03-23T14:07:35.631Z,18.25
2019-03-23T14:10:05.445Z,20.77
2019-03-23T14:12:33.960Z,21.95
2019-03-23T14:15:02.507Z,21.10
2019-03-23T14:17:31.055Z,19.75
2019-03-23T14:19:59.628Z,20.40
2019-03-23T14:22:28.159Z,20.57
2019-03-23T14:24:56.711Z,20.77
2019-03-23T14:27:25.204Z,21.12
2019-03-23T14:29:53.663Z,25.20
2019-03-23T14:32:22.137Z,26.83
2019-03-23T14:34:50.818Z,21.60
2019-03-23T14:37:19.280Z,21.15
2019-03-23T14:39:47.752Z,23.10
2019-03-23T14:42:16.265Z,25.07
2019-03-23T14:44:44.724Z,26.03
2019-03-23T14:47:13.264Z,23.00
2019-03-23T14:49:41.760Z,23.30
2019-03-23T14:52:10.222Z,25.88
2019-03-23T14:54:38.768Z,26.13
2019-03-23T14:57:07.263Z,28.23
2019-03-23T14:59:35.763Z,28.07
2019-03-23T15:02:04.296Z,28.70
2019-03-23T15:04:32.861Z,28.30
2019-03-23T15:07:01.344Z,27.20
2019-03-23T15:09:29.892Z,25.77
2019-03-23T15:11:58.415Z,26.60
2019-03-23T15:14:26.958Z,26.15
2019-03-23T15:16:55.511Z,27.47
2019-03-23T15:19:24.249Z,24.02
2019-03-23T15:21:52.817Z,24.15
2019-03-23T15:24:21.402Z,25.45
2019-03-23T15:26:49.994Z,24.02
2019-03-23T15:29:18.547Z,24.35
2019-03-23T15:31:47.089Z,24.27
2019-03-23T15:34:15.713Z,24.72
2019-03-23T15:36:44.787Z,23.35
2019-03-23T15:39:13.253Z,25.27
2019-03-23T15:41:41.761Z,26.60
2019-03-23T15:44:10.300Z,27.40
2019-03-23T15:46:38.841Z,26.00
2019-03-23T15:49:07.407Z,27.37
2019-03-23T15:51:35.930Z,27.07
2019-03-23T15:54:04.536Z,28.15
2019-03-23T15:56:33.099Z,27.35
2019-03-23T15:59:01.565Z,27.20
2019-03-23T16:01:30.064Z,27.67
2019-03-23T16:03:58.563Z,28.23
2019-03-23T16:06:27.097Z,28.35
2019-03-23T16:08:55.556Z,26.85
2019-03-23T16:11:24.109Z,26.93
2019-03-23T16:13:52.696Z,27.22
2019-03-23T16:16:21.160Z,26.17
2019-03-23T16:18:49.724Z,27.77
2019-03-23T16:21:18.204Z,27.20
2019-03-23T16:23:46.701Z,26.50
2019-03-23T16:26:15.310Z,26.73
2019-03-23T16:28:43.848Z,27.75
2019-03-23T16:31:12.318Z,30.10
2019-03-23T16:33:40.820Z,28.75
2019-03-23T16:36:09.519Z,25.83
2019-03-23T16:38:38.192Z,25.57
2019-03-23T16:41:08.416Z,24.95
2019-03-23T16:43:36.884Z,24.45
2019-03-23T16:46:05.351Z,25.15
2019-03-23T16:48:33.856Z,24.75
2019-03-23T16:51:02.461Z,23.90
2019-03-23T16:53:30.925Z,23.80
2019-03-23T16:55:59.417Z,24.12
2019-03-23T16:58:27.896Z,23.32
2019-03-23T17:00:56.433Z,23.98
2019-03-23T17:03:25.083Z,23.50
2019-03-23T17:05:53.552Z,24.45
2019-03-23T17:08:22.022Z,23.65
2019-03-23T17:10:50.530Z,23.85
2019-03-23T17:13:19.065Z,23.47
2019-03-23T17:15:47.599Z,25.02
2019-03-23T17:18:16.165Z,23.70
2019-03-23T17:20:44.841Z,25.45
2019-03-23T17:23:13.308Z,25.00
2019-03-23T17:25:41.818Z,26.68
2019-03-23T17:28:10.357Z,25.35
2019-03-23T17:30:39.029Z,26.57
2019-03-23T17:33:08.975Z,26.40
2019-03-23T17:35:37.606Z,26.73
2019-03-23T17:38:06.228Z,26.87
2019-03-23T17:40:36.005Z,26.10
2019-03-23T17:43:06.124Z,26.90
2019-03-23T17:45:34.655Z,28.23
2019-03-23T17:48:03.237Z,27.82
2019-03-23T17:50:31.794Z,26.37
2019-03-23T17:53:00.327Z,26.23
2019-03-23T17:55:28.904Z,28.07
2019-03-23T17:57:57.444Z,39.67
2019-03-23T18:00:26.767Z,27.85
2019-03-23T18:02:55.336Z,29.02
2019-03-23T18:05:23.873Z,38.50
2019-03-23T18:07:52.336Z,35.20
2019-03-23T18:10:20.901Z,33.55
2019-03-23T18:12:49.408Z,31.07
2019-03-23T18:15:17.951Z,32.85
2019-03-23T18:17:46.451Z,33.25
2019-03-23T18:20:15.038Z,32.08
2019-03-23T18:22:43.536Z,31.10
2019-03-23T18:25:12.109Z,31.75
2019-03-23T18:27:40.577Z,31.05
2019-03-23T18:30:27.525Z,31.45
2019-03-23T18:32:55.999Z,30.62
2019-03-23T18:35:24.538Z,31.12
2019-03-23T18:37:53.048Z,30.77
2019-03-23T18:40:21.521Z,30.90
2019-03-23T18:42:50.382Z,30.08
2019-03-23T18:45:18.956Z,30.77
2019-03-23T18:47:47.491Z,30.68
2019-03-23T18:50:16.904Z,32.53
2019-03-23T18:52:45.435Z,32.08
2019-03-23T18:55:13.970Z,30.37
2019-03-23T18:57:47.679Z,34.08
2019-03-23T19:00:36.871Z,32.20
2019-03-23T19:03:05.787Z,31.85
2019-03-23T19:05:34.665Z,32.70
2019-03-23T19:08:03.389Z,34.43
2019-03-23T19:10:31.864Z,32.78
2019-03-23T19:13:00.477Z,36.98
2019-03-23T19:15:28.988Z,33.48
2019-03-23T19:17:57.479Z,33.05
2019-03-23T19:20:25.945Z,34.18
2019-03-23T19:22:54.456Z,31.60
2019-03-23T19:25:22.927Z,32.63
2019-03-23T19:27:51.385Z,32.40
2019-03-23T19:30:20.430Z,49.58
2019-03-23T19:32:48.902Z,78.75
2019-03-23T19:35:17.373Z,62.15
2019-03-23T19:37:45.871Z,75.12
2019-03-23T19:40:14.476Z,64.82
2019-03-23T19:42:42.977Z,72.53
2019-03-23T19:45:12.032Z,76.00
2019-03-23T19:47:40.626Z,70.37
2019-03-23T19:50:09.857Z,54.88
2019-03-23T19:52:38.508Z,75.15
2019-03-23T19:55:08.126Z,72.70
2019-03-23T20:00:07.444Z,69.17
2019-03-23T20:02:35.981Z,67.75
2019-03-23T20:05:06.284Z,65.15
2019-03-23T20:07:34.952Z,88.60
2019-03-23T20:10:05.355Z,89.97
2019-03-23T20:12:33.870Z,92.97
2019-03-23T20:15:02.603Z,94.07
2019-03-23T20:17:31.072Z,90.20
2019-03-23T20:19:59.533Z,95.15
2019-03-23T20:22:28.060Z,95.30
2019-03-23T20:24:56.594Z,90.07
2019-03-23T20:27:25.167Z,59.67
2019-03-23T20:29:53.671Z,57.83
2019-03-23T20:32:22.213Z,83.30
2019-03-23T20:34:50.762Z,89.65
2019-03-23T20:37:19.374Z,100.22
2019-03-23T20:39:47.917Z,88.15
2019-03-23T20:42:16.567Z,92.95
2019-03-23T20:44:45.085Z,98.97
2019-03-23T20:47:14.809Z,99.52
2019-03-23T20:52:11.460Z,110.50
2019-03-23T20:54:40.006Z,116.57
2019-03-23T20:57:08.483Z,106.80
2019-03-23T20:59:36.994Z,127.50
2019-03-23T21:02:05.548Z,125.53
2019-03-23T21:04:34.023Z,126.22
2019-03-23T21:07:02.546Z,121.37
2019-03-23T21:09:31.021Z,125.65
2019-03-23T21:11:59.571Z,120.47
2019-03-23T21:14:28.148Z,113.52
2019-03-23T21:16:56.704Z,103.30
2019-03-23T21:19:25.225Z,127.02
2019-03-23T21:21:53.819Z,126.10
2019-03-23T21:24:22.296Z,140.30
2019-03-23T21:26:50.872Z,143.55
2019-03-23T21:29:19.451Z,135.78
2019-03-23T21:31:47.995Z,121.67
2019-03-23T21:34:16.463Z,113.37
2019-03-23T21:36:44.963Z,130.37
2019-03-23T21:39:13.435Z,134.32
2019-03-23T21:41:41.908Z,129.07
2019-03-23T21:44:10.423Z,151.57
2019-03-23T21:46:38.958Z,147.90
2019-03-23T21:49:07.691Z,129.70
2019-03-23T21:51:36.203Z,152.20
2019-03-23T21:54:04.939Z,114.80
2019-03-23T21:56:33.463Z,102.43
2019-03-23T21:59:01.978Z,94.37
2019-03-23T22:01:30.437Z,90.55
2019-03-23T22:03:58.905Z,103.58
2019-03-23T22:06:27.492Z,113.10
2019-03-23T22:08:55.980Z,112.45
2019-03-23T22:11:24.511Z,120.02
2019-03-23T22:13:53.016Z,124.20
2019-03-23T22:16:21.475Z,126.20
2019-03-23T22:18:49.953Z,133.67
2019-03-23T22:21:18.527Z,122.10
2019-03-23T22:23:46.996Z,114.32
2019-03-23T22:26:15.461Z,118.50
2019-03-23T22:28:43.967Z,128.47
2019-03-23T22:31:12.443Z,140.35
2019-03-23T22:33:40.912Z,169.50
2019-03-23T22:36:09.427Z,174.57
2019-03-23T22:38:37.892Z,200.50
2019-03-23T22:41:06.355Z,153.95
2019-03-23T22:43:34.948Z,128.55
2019-03-23T22:46:03.571Z,152.53
2019-03-23T22:48:32.206Z,164.20
2019-03-23T22:51:00.989Z,130.65
2019-03-23T22:53:29.523Z,172.33
2019-03-23T22:55:57.992Z,151.95
2019-03-23T22:58:26.787Z,169.82
2019-03-23T23:00:58.446Z,172.50
2019-03-23T23:03:27.019Z,169.57
2019-03-23T23:05:55.699Z,222.70
2019-03-23T23:08:24.161Z,124.92
2019-03-23T23:10:52.629Z,117.22
2019-03-23T23:13:21.129Z,162.88
2019-03-23T23:15:49.605Z,156.47
2019-03-23T23:18:18.143Z,128.38
2019-03-23T23:20:46.635Z,133.05
2019-03-23T23:23:15.116Z,128.85
2019-03-23T23:25:43.676Z,104.15
2019-03-23T23:28:12.175Z,126.42
2019-03-23T23:30:40.724Z,110.60
2019-03-23T23:33:09.339Z,101.02
2019-03-23T23:35:37.839Z,139.22
2019-03-23T23:38:06.307Z,90.70
2019-03-23T23:40:34.916Z,111.72
2019-03-23T23:43:03.428Z,80.57
2019-03-23T23:45:31.965Z,102.87
2019-03-23T23:48:00.432Z,93.90
2019-03-23T23:50:28.951Z,94.35
2019-03-23T23:52:57.682Z,93.62
2019-03-23T23:55:26.295Z,92.73
2019-03-23T23:57:54.791Z,93.45
